Pagrindinis puslapis
METAR-TAF:

METAR-TAF

Oro uostai :

Konija, Turkija

platuma: 37-58N, ilguma: 032-33E, Aukštis: 1032 m

Dabartinis oras

Ataskaita buvo paskelbta 22 minutes, ne 00:50 UTC
Vėjas 3 kt iš Šiaurės Rytų, svyruoja nuo Šiaurės ir Rytų
Temperatūra 3°C
Drėgmė 87%
Slėgis 1019 hPa
Matomumas 10 km arba daugiau
Išsisklaidę debesys ne aukštis 4000 ft
Su prošvaistėmis ne aukštis 10000 ft

METAR: LTAN 140050Z 04003KT 350V080 9999 SCT040 BKN100 03/01 Q1019 NOSIG

Laikas: 04:12 (01:12 UTC)

Prognozė

Ataskaita buvo paskelbta 2 valandos ir 32 minutes, ne 22:40 UTC
Prognozė galioja nuo 14 metu 00 UTC su 14 metu 09 UTC
Vėjas 2 kt nuo kintamojo kryptimis
Matomumas 10 km arba daugiau
Mažai debesys ne aukštis 4000 ft
Su prošvaistėmis ne aukštis 10000 ft
Tapsmas
nuo 14 metu 08 UTC su 14 metu 09 UTC
Vėjas 13 kt iš Vakarų/Pietvakarių

TAF: LTAN 132240Z 1400/1409 VRB02KT 9999 FEW040 BKN100 BECMG 1408/1409 24013KT

Orai ataskaitas ir orų prognozės (METAR, TAF).

turimą stotys yra geltonos ir raudonos taškus žemėlapyje.

Perkelti pele per norėdami pamatyti stoties vardą.

Tada spustelėkite, norėdami matyti oro stebėjimo ir prognozės.

Norėdami pakeisti žemėlapį: spustelėkite ant žalios mygtukų su juodo kryžiaus žemyn,; žalią mygtuką su brūkšneliu, jei norite nutolinti; arba žalių rodyklių gretimoms žemėlapius.


METAR-TAF: